sensor_id;sensor_type;location;lat;lon;timestamp;pressure;altitude;pressure_sealevel;temperature;humidity
60725;BME280;59881;36.722;-4.462;2022-09-09T00:02:22;100841.25;;;22.72;53.01
60725;BME280;59881;36.722;-4.462;2022-09-09T00:04:55;100839.50;;;22.79;52.46
60725;BME280;59881;36.722;-4.462;2022-09-09T00:15:11;100833.38;;;23.17;49.58
60725;BME280;59881;36.722;-4.462;2022-09-09T00:17:38;100842.00;;;23.27;48.50
60725;BME280;59881;36.722;-4.462;2022-09-09T00:23:30;100857.78;;;23.30;48.48
60725;BME280;59881;36.722;-4.462;2022-09-09T00:28:28;100873.91;;;23.07;55.63
60725;BME280;59881;36.722;-4.462;2022-09-09T00:30:59;100876.28;;;22.79;57.83
60725;BME280;59881;36.722;-4.462;2022-09-09T00:33:26;100878.59;;;22.50;59.65
60725;BME280;59881;36.722;-4.462;2022-09-09T00:35:52;100883.72;;;22.29;60.90
60725;BME280;59881;36.722;-4.462;2022-09-09T00:38:24;100884.28;;;22.08;62.55
60725;BME280;59881;36.722;-4.462;2022-09-09T00:40:51;100884.50;;;21.90;63.65
60725;BME280;59881;36.722;-4.462;2022-09-09T00:48:11;100339.06;;;18.33;64.36
60725;BME280;59881;36.722;-4.462;2022-09-09T00:50:56;100864.13;;;21.56;64.36
60725;BME280;59881;36.722;-4.462;2022-09-09T00:56:11;100866.63;;;21.58;64.30
60725;BME280;59881;36.722;-4.462;2022-09-09T00:58:38;100875.50;;;21.58;64.18
60725;BME280;59881;36.722;-4.462;2022-09-09T01:01:04;100871.00;;;21.59;64.32
60725;BME280;59881;36.722;-4.462;2022-09-09T01:03:35;100865.66;;;21.59;64.79
60725;BME280;59881;36.722;-4.462;2022-09-09T01:11:20;100859.25;;;21.52;64.72
60725;BME280;59881;36.722;-4.462;2022-09-09T01:13:46;100852.09;;;21.52;64.70
60725;BME280;59881;36.722;-4.462;2022-09-09T01:16:12;100852.91;;;21.53;64.60
60725;BME280;59881;36.722;-4.462;2022-09-09T01:18:46;100849.22;;;21.54;64.79
60725;BME280;59881;36.722;-4.462;2022-09-09T01:29:08;100841.16;;;21.54;64.50
60725;BME280;59881;36.722;-4.462;2022-09-09T01:34:18;100837.81;;;21.52;64.47
60725;BME280;59881;36.722;-4.462;2022-09-09T01:36:46;100829.97;;;21.50;64.55
60725;BME280;59881;36.722;-4.462;2022-09-09T01:39:15;100833.47;;;21.51;64.58
60725;BME280;59881;36.722;-4.462;2022-09-09T01:41:41;100826.09;;;21.53;64.96
60725;BME280;59881;36.722;-4.462;2022-09-09T01:44:07;100828.78;;;21.53;64.67
60725;BME280;59881;36.722;-4.462;2022-09-09T01:46:33;100826.94;;;21.53;64.91
60725;BME280;59881;36.722;-4.462;2022-09-09T01:48:58;100834.81;;;21.55;64.77
60725;BME280;59881;36.722;-4.462;2022-09-09T01:51:24;100825.59;;;21.57;64.66
60725;BME280;59881;36.722;-4.462;2022-09-09T01:53:50;100826.25;;;21.59;64.61
60725;BME280;59881;36.722;-4.462;2022-09-09T02:01:32;100818.22;;;21.59;64.79
60725;BME280;59881;36.722;-4.462;2022-09-09T02:04:02;100822.75;;;21.59;64.96
60725;BME280;59881;36.722;-4.462;2022-09-09T02:06:37;100828.94;;;21.59;64.65
60725;BME280;59881;36.722;-4.462;2022-09-09T02:09:07;100819.03;;;21.60;64.67
60725;BME280;59881;36.722;-4.462;2022-09-09T02:11:36;100814.00;;;21.65;64.41
60725;BME280;59881;36.722;-4.462;2022-09-09T02:21:37;100791.84;;;21.79;62.76
60725;BME280;59881;36.722;-4.462;2022-09-09T02:24:05;100794.38;;;21.81;62.61
60725;BME280;59881;36.722;-4.462;2022-09-09T02:26:34;100792.53;;;21.81;62.63
60725;BME280;59881;36.722;-4.462;2022-09-09T02:29:03;100790.84;;;21.80;62.33
60725;BME280;59881;36.722;-4.462;2022-09-09T02:31:30;100796.03;;;21.82;62.10
60725;BME280;59881;36.722;-4.462;2022-09-09T02:33:56;100779.09;;;21.81;62.07
60725;BME280;59881;36.722;-4.462;2022-09-09T02:36:23;100789.84;;;21.81;61.88
60725;BME280;59881;36.722;-4.462;2022-09-09T02:38:49;100789.63;;;21.83;61.86
60725;BME280;59881;36.722;-4.462;2022-09-09T02:41:22;100790.16;;;21.86;61.62
60725;BME280;59881;36.722;-4.462;2022-09-09T02:43:49;100789.47;;;21.93;61.60
60725;BME280;59881;36.722;-4.462;2022-09-09T02:49:03;100788.72;;;22.07;60.07
60725;BME280;59881;36.722;-4.462;2022-09-09T02:51:40;100790.66;;;22.21;58.16
60725;BME280;59881;36.722;-4.462;2022-09-09T02:54:14;100782.22;;;22.41;56.50
60725;BME280;59881;36.722;-4.462;2022-09-09T02:56:43;100776.44;;;22.52;55.61
60725;BME280;59881;36.722;-4.462;2022-09-09T02:59:11;100779.69;;;22.62;54.86
60725;BME280;59881;36.722;-4.462;2022-09-09T03:01:36;100781.97;;;22.73;54.15
60725;BME280;59881;36.722;-4.462;2022-09-09T03:04:05;100781.06;;;22.81;53.65
60725;BME280;59881;36.722;-4.462;2022-09-09T03:06:30;100777.03;;;22.85;53.56
60725;BME280;59881;36.722;-4.462;2022-09-09T03:08:55;100779.81;;;22.92;53.30
60725;BME280;59881;36.722;-4.462;2022-09-09T03:11:24;100776.75;;;22.95;53.11
60725;BME280;59881;36.722;-4.462;2022-09-09T03:13:49;100776.34;;;23.06;53.05
60725;BME280;59881;36.722;-4.462;2022-09-09T03:16:14;100774.59;;;23.13;53.07
60725;BME280;59881;36.722;-4.462;2022-09-09T03:18:40;100774.53;;;23.22;52.91
60725;BME280;59881;36.722;-4.462;2022-09-09T03:21:05;100775.13;;;23.32;52.63
60725;BME280;59881;36.722;-4.462;2022-09-09T03:23:32;100767.97;;;23.39;52.23
60725;BME280;59881;36.722;-4.462;2022-09-09T03:25:57;100763.53;;;23.46;51.96
60725;BME280;59881;36.722;-4.462;2022-09-09T03:28:23;100768.16;;;23.52;51.78
60725;BME280;59881;36.722;-4.462;2022-09-09T03:30:57;100774.84;;;23.57;51.63
60725;BME280;59881;36.722;-4.462;2022-09-09T03:33:23;100772.97;;;23.57;51.40
60725;BME280;59881;36.722;-4.462;2022-09-09T03:35:48;100774.03;;;23.56;51.30
60725;BME280;59881;36.722;-4.462;2022-09-09T03:38:13;100769.19;;;23.51;51.58
60725;BME280;59881;36.722;-4.462;2022-09-09T03:40:39;100770.59;;;23.47;51.71
60725;BME280;59881;36.722;-4.462;2022-09-09T03:43:04;100765.09;;;23.41;51.73
60725;BME280;59881;36.722;-4.462;2022-09-09T03:45:29;100769.00;;;23.38;51.96
60725;BME280;59881;36.722;-4.462;2022-09-09T03:47:55;100763.81;;;23.37;51.91
60725;BME280;59881;36.722;-4.462;2022-09-09T03:50:22;100763.72;;;23.30;52.07
60725;BME280;59881;36.722;-4.462;2022-09-09T03:52:48;100760.38;;;23.28;52.00
60725;BME280;59881;36.722;-4.462;2022-09-09T03:55:13;100761.56;;;23.25;52.30
60725;BME280;59881;36.722;-4.462;2022-09-09T03:57:39;100761.91;;;23.22;52.34
60725;BME280;59881;36.722;-4.462;2022-09-09T04:00:05;100762.94;;;23.21;52.57
60725;BME280;59881;36.722;-4.462;2022-09-09T04:02:31;100760.75;;;23.25;52.84
60725;BME280;59881;36.722;-4.462;2022-09-09T04:04:57;100766.41;;;23.30;52.80
60725;BME280;59881;36.722;-4.462;2022-09-09T04:07:22;100770.00;;;23.37;52.79
60725;BME280;59881;36.722;-4.462;2022-09-09T04:09:47;100772.34;;;23.40;52.48
60725;BME280;59881;36.722;-4.462;2022-09-09T04:12:13;100769.28;;;23.43;52.59
60725;BME280;59881;36.722;-4.462;2022-09-09T04:14:38;100769.09;;;23.45;52.48
60725;BME280;59881;36.722;-4.462;2022-09-09T04:17:04;100770.00;;;23.37;52.72
60725;BME280;59881;36.722;-4.462;2022-09-09T04:19:31;100775.56;;;23.35;52.79
60725;BME280;59881;36.722;-4.462;2022-09-09T04:21:56;100772.41;;;23.32;52.70
60725;BME280;59881;36.722;-4.462;2022-09-09T04:24:22;100771.13;;;23.28;53.01
60725;BME280;59881;36.722;-4.462;2022-09-09T04:26:48;100768.59;;;23.26;53.31
60725;BME280;59881;36.722;-4.462;2022-09-09T04:29:14;100771.66;;;23.23;53.48
60725;BME280;59881;36.722;-4.462;2022-09-09T04:31:39;100775.34;;;23.22;53.28
60725;BME280;59881;36.722;-4.462;2022-09-09T04:34:07;100770.84;;;23.23;53.48
60725;BME280;59881;36.722;-4.462;2022-09-09T04:36:33;100766.63;;;23.20;53.42
60725;BME280;59881;36.722;-4.462;2022-09-09T04:38:58;100779.81;;;23.15;53.50
60725;BME280;59881;36.722;-4.462;2022-09-09T04:41:23;100777.50;;;23.12;53.48
60725;BME280;59881;36.722;-4.462;2022-09-09T04:43:49;100790.81;;;23.20;53.64
60725;BME280;59881;36.722;-4.462;2022-09-09T04:46:14;100786.97;;;23.23;53.46
60725;BME280;59881;36.722;-4.462;2022-09-09T04:48:42;100791.97;;;23.26;53.42
60725;BME280;59881;36.722;-4.462;2022-09-09T04:51:08;100793.28;;;23.30;53.24
60725;BME280;59881;36.722;-4.462;2022-09-09T04:53:34;100794.28;;;23.29;53.18
60725;BME280;59881;36.722;-4.462;2022-09-09T04:56:07;100802.06;;;23.24;53.40
60725;BME280;59881;36.722;-4.462;2022-09-09T04:58:35;100807.97;;;23.19;53.71
60725;BME280;59881;36.722;-4.462;2022-09-09T05:01:05;100807.97;;;23.19;53.72
60725;BME280;59881;36.722;-4.462;2022-09-09T05:03:30;100805.28;;;23.19;53.36
60725;BME280;59881;36.722;-4.462;2022-09-09T05:06:03;100804.91;;;23.22;53.37
60725;BME280;59881;36.722;-4.462;2022-09-09T05:08:29;100808.63;;;23.21;53.54
60725;BME280;59881;36.722;-4.462;2022-09-09T05:10:54;100803.91;;;23.23;53.34
60725;BME280;59881;36.722;-4.462;2022-09-09T05:13:20;100801.69;;;23.27;53.20
60725;BME280;59881;36.722;-4.462;2022-09-09T05:15:54;100806.53;;;23.31;53.25
60725;BME280;59881;36.722;-4.462;2022-09-09T05:18:20;100808.69;;;23.36;53.22
60725;BME280;59881;36.722;-4.462;2022-09-09T05:20:47;100816.75;;;23.36;52.92
60725;BME280;59881;36.722;-4.462;2022-09-09T05:23:12;100812.84;;;23.39;52.86
60725;BME280;59881;36.722;-4.462;2022-09-09T05:25:38;100814.72;;;23.38;52.77
60725;BME280;59881;36.722;-4.462;2022-09-09T05:28:04;100812.19;;;23.37;52.76
60725;BME280;59881;36.722;-4.462;2022-09-09T05:30:30;100810.72;;;23.34;53.01
60725;BME280;59881;36.722;-4.462;2022-09-09T05:32:56;100815.25;;;23.33;52.86
60725;BME280;59881;36.722;-4.462;2022-09-09T05:35:21;100822.66;;;23.31;52.92
60725;BME280;59881;36.722;-4.462;2022-09-09T05:37:48;100826.63;;;23.35;52.96
60725;BME280;59881;36.722;-4.462;2022-09-09T05:40:13;100828.50;;;23.35;52.91
60725;BME280;59881;36.722;-4.462;2022-09-09T05:42:39;100829.53;;;23.34;53.04
60725;BME280;59881;36.722;-4.462;2022-09-09T05:45:05;100836.94;;;23.32;53.05
60725;BME280;59881;36.722;-4.462;2022-09-09T05:47:30;100838.47;;;23.26;53.05
60725;BME280;59881;36.722;-4.462;2022-09-09T05:49:55;100842.25;;;23.17;53.13
60725;BME280;59881;36.722;-4.462;2022-09-09T05:52:21;100842.97;;;23.11;53.54
60725;BME280;59881;36.722;-4.462;2022-09-09T05:54:46;100845.88;;;23.09;53.75
60725;BME280;59881;36.722;-4.462;2022-09-09T05:57:11;100848.72;;;23.08;54.63
60725;BME280;59881;36.722;-4.462;2022-09-09T05:59:37;100855.84;;;22.92;56.33
60725;BME280;59881;36.722;-4.462;2022-09-09T06:02:03;100858.53;;;22.69;58.21
60725;BME280;59881;36.722;-4.462;2022-09-09T06:04:28;100862.66;;;22.49;59.76
60725;BME280;59881;36.722;-4.462;2022-09-09T06:06:55;100864.91;;;22.37;61.06
60725;BME280;59881;36.722;-4.462;2022-09-09T06:09:20;100990.25;;;22.28;61.98
60725;BME280;59881;36.722;-4.462;2022-09-09T06:11:46;100880.72;;;22.16;63.51
60725;BME280;59881;36.722;-4.462;2022-09-09T06:14:11;100885.94;;;22.17;64.66
60725;BME280;59881;36.722;-4.462;2022-09-09T06:16:36;100881.53;;;22.72;65.08
60725;BME280;59881;36.722;-4.462;2022-09-09T06:19:02;100879.16;;;23.61;63.43
60725;BME280;59881;36.722;-4.462;2022-09-09T06:21:32;100883.47;;;24.45;60.47
60725;BME280;59881;36.722;-4.462;2022-09-09T06:23:58;100877.69;;;25.21;57.90
60725;BME280;59881;36.722;-4.462;2022-09-09T06:26:25;100876.88;;;25.76;55.95
60725;BME280;59881;36.722;-4.462;2022-09-09T06:28:51;100880.28;;;26.20;54.88
60725;BME280;59881;36.722;-4.462;2022-09-09T06:31:18;100876.75;;;26.74;53.24
60725;BME280;59881;36.722;-4.462;2022-09-09T06:33:46;100871.84;;;27.51;51.47
60725;BME280;59881;36.722;-4.462;2022-09-09T06:36:13;100874.09;;;28.08;49.50
60725;BME280;59881;36.722;-4.462;2022-09-09T06:38:40;100884.50;;;27.97;48.75
60725;BME280;59881;36.722;-4.462;2022-09-09T06:41:06;100888.50;;;27.61;49.95
60725;BME280;59881;36.722;-4.462;2022-09-09T06:43:31;100888.47;;;28.01;49.06
60725;BME280;59881;36.722;-4.462;2022-09-09T06:46:01;100885.84;;;28.85;47.09
60725;BME280;59881;36.722;-4.462;2022-09-09T06:48:27;100888.22;;;29.57;45.40
60725;BME280;59881;36.722;-4.462;2022-09-09T06:53:30;100889.78;;;30.63;43.28
60725;BME280;59881;36.722;-4.462;2022-09-09T06:55:58;100887.09;;;30.93;42.00
60725;BME280;59881;36.722;-4.462;2022-09-09T06:58:24;100895.28;;;31.17;41.69
60725;BME280;59881;36.722;-4.462;2022-09-09T07:00:49;100891.50;;;31.18;40.84
60725;BME280;59881;36.722;-4.462;2022-09-09T07:03:14;100899.44;;;30.59;41.67
60725;BME280;59881;36.722;-4.462;2022-09-09T07:05:40;100897.72;;;30.46;42.25
60725;BME280;59881;36.722;-4.462;2022-09-09T07:08:05;100890.13;;;30.85;42.04
60725;BME280;59881;36.722;-4.462;2022-09-09T07:10:31;100904.09;;;30.70;41.50
60725;BME280;59881;36.722;-4.462;2022-09-09T07:12:56;100904.53;;;30.56;41.91
60725;BME280;59881;36.722;-4.462;2022-09-09T07:15:21;100900.31;;;30.90;41.48
60725;BME280;59881;36.722;-4.462;2022-09-09T07:17:48;100898.44;;;31.80;39.75
60725;BME280;59881;36.722;-4.462;2022-09-09T07:20:14;100897.56;;;32.67;38.68
60725;BME280;59881;36.722;-4.462;2022-09-09T07:22:39;100901.56;;;33.22;37.34
60725;BME280;59881;36.722;-4.462;2022-09-09T07:25:05;100902.53;;;33.83;36.52
60725;BME280;59881;36.722;-4.462;2022-09-09T07:27:30;100902.69;;;34.37;35.23
60725;BME280;59881;36.722;-4.462;2022-09-09T07:29:56;100893.31;;;34.77;34.50
60725;BME280;59881;36.722;-4.462;2022-09-09T07:32:22;100896.44;;;35.18;33.29
60725;BME280;59881;36.722;-4.462;2022-09-09T07:34:47;100901.72;;;35.30;33.50
60725;BME280;59881;36.722;-4.462;2022-09-09T07:37:13;100902.53;;;35.63;32.78
60725;BME280;59881;36.722;-4.462;2022-09-09T07:39:39;100903.78;;;35.93;32.16
60725;BME280;59881;36.722;-4.462;2022-09-09T07:42:05;100911.13;;;36.35;31.84
60725;BME280;59881;36.722;-4.462;2022-09-09T07:44:30;100908.75;;;36.59;31.48
60725;BME280;59881;36.722;-4.462;2022-09-09T07:46:57;100906.34;;;36.78;31.03
60725;BME280;59881;36.722;-4.462;2022-09-09T07:49:22;100903.38;;;37.10;30.02
60725;BME280;59881;36.722;-4.462;2022-09-09T07:51:48;100907.50;;;37.23;30.14
60725;BME280;59881;36.722;-4.462;2022-09-09T07:54:15;100906.94;;;37.62;29.59
60725;BME280;59881;36.722;-4.462;2022-09-09T07:56:41;100904.91;;;38.08;28.70
60725;BME280;59881;36.722;-4.462;2022-09-09T07:59:06;100908.34;;;38.29;28.06
60725;BME280;59881;36.722;-4.462;2022-09-09T08:01:36;100915.63;;;38.65;27.50
60725;BME280;59881;36.722;-4.462;2022-09-09T08:04:04;100915.16;;;38.92;26.99
60725;BME280;59881;36.722;-4.462;2022-09-09T08:06:35;100912.00;;;39.43;26.21
60725;BME280;59881;36.722;-4.462;2022-09-09T08:09:01;100911.91;;;39.53;25.95
60725;BME280;59881;36.722;-4.462;2022-09-09T08:11:27;100919.03;;;39.60;25.53
60725;BME280;59881;36.722;-4.462;2022-09-09T08:13:53;100921.19;;;39.63;25.61
60725;BME280;59881;36.722;-4.462;2022-09-09T08:16:23;100921.19;;;39.63;25.61
60725;BME280;59881;36.722;-4.462;2022-09-09T08:18:49;100920.59;;;39.95;25.79
60725;BME280;59881;36.722;-4.462;2022-09-09T08:21:23;100917.75;;;40.00;25.80
60725;BME280;59881;36.722;-4.462;2022-09-09T08:23:50;100920.69;;;40.33;25.53
60725;BME280;59881;36.722;-4.462;2022-09-09T08:26:18;100927.34;;;40.51;25.24
60725;BME280;59881;36.722;-4.462;2022-09-09T08:28:46;100924.88;;;40.68;24.85
60725;BME280;59881;36.722;-4.462;2022-09-09T08:31:15;100926.38;;;40.80;24.57
60725;BME280;59881;36.722;-4.462;2022-09-09T08:33:41;100923.09;;;40.97;24.47
60725;BME280;59881;36.722;-4.462;2022-09-09T08:36:09;100931.50;;;41.24;24.46
60725;BME280;59881;36.722;-4.462;2022-09-09T08:38:35;100925.50;;;41.50;24.04
60725;BME280;59881;36.722;-4.462;2022-09-09T08:43:46;100922.25;;;42.31;23.07
60725;BME280;59881;36.722;-4.462;2022-09-09T08:46:57;100925.00;;;42.81;22.71
60725;BME280;59881;36.722;-4.462;2022-09-09T08:49:05;100932.63;;;42.89;22.62
60725;BME280;59881;36.722;-4.462;2022-09-09T08:51:32;100931.59;;;42.85;22.51
60725;BME280;59881;36.722;-4.462;2022-09-09T09:44:56;100974.03;;;45.47;19.67
60725;BME280;59881;36.722;-4.462;2022-09-09T09:47:32;100970.06;;;45.48;19.57
60725;BME280;59881;36.722;-4.462;2022-09-09T09:49:58;100975.03;;;45.33;18.87
60725;BME280;59881;36.722;-4.462;2022-09-09T09:52:30;100969.56;;;45.63;17.58
60725;BME280;59881;36.722;-4.462;2022-09-09T09:54:56;100977.66;;;45.85;17.75
60725;BME280;59881;36.722;-4.462;2022-09-09T09:57:31;100981.22;;;46.03;18.10
60725;BME280;59881;36.722;-4.462;2022-09-09T10:02:39;100971.63;;;47.06;17.24
60725;BME280;59881;36.722;-4.462;2022-09-09T10:05:16;100979.63;;;47.29;16.79
60725;BME280;59881;36.722;-4.462;2022-09-09T10:07:42;100982.50;;;47.20;16.35
60725;BME280;59881;36.722;-4.462;2022-09-09T10:10:57;100976.72;;;46.11;17.57
60725;BME280;59881;36.722;-4.462;2022-09-09T10:13:59;100976.28;;;45.62;18.38
60725;BME280;59881;36.722;-4.462;2022-09-09T10:18:24;100975.56;;;44.83;18.59
60725;BME280;59881;36.722;-4.462;2022-09-09T10:34:50;100969.41;;;46.28;17.64
60725;BME280;59881;36.722;-4.462;2022-09-09T10:37:28;100978.84;;;46.44;17.29
60725;BME280;59881;36.722;-4.462;2022-09-09T10:40:13;100968.53;;;46.86;17.02
60725;BME280;59881;36.722;-4.462;2022-09-09T10:42:41;100964.72;;;46.70;17.12
60725;BME280;59881;36.722;-4.462;2022-09-09T10:45:15;100970.31;;;43.67;19.64
60725;BME280;59881;36.722;-4.462;2022-09-09T10:55:20;100981.34;;;33.12;32.91
60725;BME280;59881;36.722;-4.462;2022-09-09T10:57:51;100982.53;;;32.11;34.93
60725;BME280;59881;36.722;-4.462;2022-09-09T11:00:27;100992.34;;;31.35;36.95
60725;BME280;59881;36.722;-4.462;2022-09-09T11:02:57;100993.53;;;30.79;38.13
60725;BME280;59881;36.722;-4.462;2022-09-09T11:08:28;100982.59;;;30.48;38.81
60725;BME280;59881;36.722;-4.462;2022-09-09T11:13:23;100976.38;;;29.79;39.97
60725;BME280;59881;36.722;-4.462;2022-09-09T11:15:56;100975.47;;;29.60;41.26
60725;BME280;59881;36.722;-4.462;2022-09-09T11:18:35;100978.25;;;29.54;41.06
60725;BME280;59881;36.722;-4.462;2022-09-09T11:21:03;100978.63;;;29.57;40.62
60725;BME280;59881;36.722;-4.462;2022-09-09T11:23:38;100970.63;;;29.69;40.40
60725;BME280;59881;36.722;-4.462;2022-09-09T11:26:06;100968.16;;;29.61;39.91
60725;BME280;59881;36.722;-4.462;2022-09-09T11:31:11;100966.94;;;29.57;39.84
60725;BME280;59881;36.722;-4.462;2022-09-09T11:34:02;100970.00;;;29.35;40.01
60725;BME280;59881;36.722;-4.462;2022-09-09T11:41:36;100966.31;;;29.29;40.27
60725;BME280;59881;36.722;-4.462;2022-09-09T11:44:09;100965.28;;;29.24;40.51
60725;BME280;59881;36.722;-4.462;2022-09-09T11:46:36;100971.25;;;29.01;40.55
60725;BME280;59881;36.722;-4.462;2022-09-09T11:49:03;100967.84;;;28.74;40.99
60725;BME280;59881;36.722;-4.462;2022-09-09T11:51:30;100956.06;;;28.48;41.50
60725;BME280;59881;36.722;-4.462;2022-09-09T11:53:57;100964.38;;;28.40;41.72
60725;BME280;59881;36.722;-4.462;2022-09-09T11:56:43;100973.16;;;28.48;41.71
60725;BME280;59881;36.722;-4.462;2022-09-09T11:59:28;100974.84;;;28.36;42.74
60725;BME280;59881;36.722;-4.462;2022-09-09T12:01:58;100969.59;;;28.41;43.27
60725;BME280;59881;36.722;-4.462;2022-09-09T12:06:54;100967.91;;;28.47;43.04
60725;BME280;59881;36.722;-4.462;2022-09-09T12:11:49;100966.91;;;28.48;42.71
60725;BME280;59881;36.722;-4.462;2022-09-09T12:14:21;100957.09;;;28.40;43.14
60725;BME280;59881;36.722;-4.462;2022-09-09T12:16:48;100954.00;;;28.30;43.04
60725;BME280;59881;36.722;-4.462;2022-09-09T12:19:14;100958.81;;;28.28;43.85
60725;BME280;59881;36.722;-4.462;2022-09-09T12:27:07;100941.72;;;28.27;44.09
60725;BME280;59881;36.722;-4.462;2022-09-09T12:37:02;100939.81;;;28.48;44.28
60725;BME280;59881;36.722;-4.462;2022-09-09T12:39:34;100941.69;;;28.41;45.44
60725;BME280;59881;36.722;-4.462;2022-09-09T12:42:02;100954.25;;;28.15;46.03
60725;BME280;59881;36.722;-4.462;2022-09-09T12:44:28;100942.38;;;27.83;48.14
60725;BME280;59881;36.722;-4.462;2022-09-09T12:46:54;100936.78;;;27.64;48.51
60725;BME280;59881;36.722;-4.462;2022-09-09T12:49:25;100932.44;;;27.43;49.83
60725;BME280;59881;36.722;-4.462;2022-09-09T12:51:51;100942.38;;;27.30;50.56
60725;BME280;59881;36.722;-4.462;2022-09-09T12:54:17;100944.91;;;27.38;50.38
60725;BME280;59881;36.722;-4.462;2022-09-09T12:56:45;100940.31;;;27.38;50.20
60725;BME280;59881;36.722;-4.462;2022-09-09T12:59:21;100944.50;;;27.48;49.54
60725;BME280;59881;36.722;-4.462;2022-09-09T13:01:54;100937.00;;;27.63;49.65
60725;BME280;59881;36.722;-4.462;2022-09-09T13:04:20;100940.31;;;27.58;48.78
60725;BME280;59881;36.722;-4.462;2022-09-09T13:06:47;100929.72;;;27.50;49.58
60725;BME280;59881;36.722;-4.462;2022-09-09T13:09:12;100929.50;;;27.52;49.95
60725;BME280;59881;36.722;-4.462;2022-09-09T13:11:39;100932.00;;;27.40;50.53
60725;BME280;59881;36.722;-4.462;2022-09-09T13:14:17;100936.34;;;27.21;51.04
60725;BME280;59881;36.722;-4.462;2022-09-09T13:16:54;100926.50;;;26.93;51.69
60725;BME280;59881;36.722;-4.462;2022-09-09T13:19:20;100934.97;;;26.77;52.92
60725;BME280;59881;36.722;-4.462;2022-09-09T13:21:46;100929.97;;;26.74;53.46
60725;BME280;59881;36.722;-4.462;2022-09-09T13:24:25;100920.59;;;26.70;52.13
60725;BME280;59881;36.722;-4.462;2022-09-09T13:26:59;100918.75;;;26.70;52.30
60725;BME280;59881;36.722;-4.462;2022-09-09T13:29:26;100917.09;;;26.82;52.76
60725;BME280;59881;36.722;-4.462;2022-09-09T13:31:52;100915.03;;;26.84;52.87
60725;BME280;59881;36.722;-4.462;2022-09-09T13:34:31;100917.91;;;26.76;53.07
60725;BME280;59881;36.722;-4.462;2022-09-09T13:37:07;100915.63;;;26.73;53.35
60725;BME280;59881;36.722;-4.462;2022-09-09T13:39:50;100906.50;;;26.81;52.99
60725;BME280;59881;36.722;-4.462;2022-09-09T13:42:27;100908.75;;;26.71;53.78
60725;BME280;59881;36.722;-4.462;2022-09-09T13:44:53;100901.28;;;26.66;53.86
60725;BME280;59881;36.722;-4.462;2022-09-09T13:47:31;100896.50;;;26.75;53.40
60725;BME280;59881;36.722;-4.462;2022-09-09T13:49:57;100891.56;;;26.98;53.13
60725;BME280;59881;36.722;-4.462;2022-09-09T13:52:22;100894.28;;;27.18;52.69
60725;BME280;59881;36.722;-4.462;2022-09-09T13:54:49;100884.53;;;27.17;50.94
60725;BME280;59881;36.722;-4.462;2022-09-09T13:57:18;100884.94;;;27.21;51.15
60725;BME280;59881;36.722;-4.462;2022-09-09T13:59:45;100896.59;;;27.08;51.15
60725;BME280;59881;36.722;-4.462;2022-09-09T14:02:11;100893.44;;;26.91;50.96
60725;BME280;59881;36.722;-4.462;2022-09-09T14:04:37;100874.06;;;26.81;51.92
60725;BME280;59881;36.722;-4.462;2022-09-09T14:07:02;100868.63;;;26.68;51.60
60725;BME280;59881;36.722;-4.462;2022-09-09T14:09:28;100859.66;;;26.60;51.83
60725;BME280;59881;36.722;-4.462;2022-09-09T14:11:53;100862.16;;;26.55;52.72
60725;BME280;59881;36.722;-4.462;2022-09-09T14:14:20;100859.66;;;26.60;52.97
60725;BME280;59881;36.722;-4.462;2022-09-09T14:16:45;100868.19;;;26.57;53.14
60725;BME280;59881;36.722;-4.462;2022-09-09T14:19:10;100851.34;;;26.55;54.00
60725;BME280;59881;36.722;-4.462;2022-09-09T14:21:36;100859.06;;;26.65;52.89
60725;BME280;59881;36.722;-4.462;2022-09-09T14:24:01;100849.72;;;26.74;53.49
60725;BME280;59881;36.722;-4.462;2022-09-09T14:26:26;100850.16;;;26.78;54.14
60725;BME280;59881;36.722;-4.462;2022-09-09T14:28:53;100844.31;;;26.81;53.55
60725;BME280;59881;36.722;-4.462;2022-09-09T14:31:19;100859.91;;;26.72;53.59
60725;BME280;59881;36.722;-4.462;2022-09-09T14:33:44;100847.78;;;26.55;53.88
60725;BME280;59881;36.722;-4.462;2022-09-09T14:36:10;100843.19;;;26.49;54.85
60725;BME280;59881;36.722;-4.462;2022-09-09T14:38:36;100846.09;;;26.47;55.51
60725;BME280;59881;36.722;-4.462;2022-09-09T14:41:11;100842.59;;;26.53;55.34
60725;BME280;59881;36.722;-4.462;2022-09-09T14:43:37;100841.53;;;26.54;54.82
60725;BME280;59881;36.722;-4.462;2022-09-09T14:46:13;100835.47;;;26.46;54.90
60725;BME280;59881;36.722;-4.462;2022-09-09T14:48:38;100836.72;;;26.43;55.31
60725;BME280;59881;36.722;-4.462;2022-09-09T14:51:09;100846.25;;;26.39;54.89
60725;BME280;59881;36.722;-4.462;2022-09-09T14:53:35;100833.84;;;26.45;53.67
60725;BME280;59881;36.722;-4.462;2022-09-09T14:56:05;100828.22;;;26.46;53.32
60725;BME280;59881;36.722;-4.462;2022-09-09T14:58:31;100829.25;;;26.45;54.42
60725;BME280;59881;36.722;-4.462;2022-09-09T15:01:01;100832.97;;;26.37;55.38
60725;BME280;59881;36.722;-4.462;2022-09-09T15:03:26;100824.22;;;26.29;55.92
60725;BME280;59881;36.722;-4.462;2022-09-09T15:05:52;100818.38;;;26.25;56.75
60725;BME280;59881;36.722;-4.462;2022-09-09T15:08:17;100812.97;;;26.25;56.75
60725;BME280;59881;36.722;-4.462;2022-09-09T15:10:42;100813.44;;;26.35;56.37
60725;BME280;59881;36.722;-4.462;2022-09-09T15:13:09;100807.44;;;26.40;55.98
60725;BME280;59881;36.722;-4.462;2022-09-09T15:15:35;100807.44;;;26.40;54.74
60725;BME280;59881;36.722;-4.462;2022-09-09T15:18:00;100807.59;;;26.32;55.47
60725;BME280;59881;36.722;-4.462;2022-09-09T15:20:25;100812.38;;;26.30;55.72
60725;BME280;59881;36.722;-4.462;2022-09-09T15:22:51;100809.91;;;26.35;55.15
60725;BME280;59881;36.722;-4.462;2022-09-09T15:25:17;100808.41;;;26.26;55.28
60725;BME280;59881;36.722;-4.462;2022-09-09T15:27:43;100802.19;;;26.25;56.19
60725;BME280;59881;36.722;-4.462;2022-09-09T15:30:09;100803.63;;;26.21;55.80
60725;BME280;59881;36.722;-4.462;2022-09-09T15:32:35;100797.59;;;26.26;56.47